Time;durP1;ratioP1;P1;durP2;ratioP2;P2;SDS_P1;SDS_P2;PMS_P1;PMS_P2;Temp;Humidity;BMP_temperature;BMP_pressure;BME280_temperature;BME280_humidity;BME280_pressure;Samples;Min_cycle;Max_cycle;Signal;HPM_P1;HPM_P2
2022/09/10 00:00:59;;;;;;;0.20;0.20;;;16.40;99.90;;;;;;4961890;28;20443;-77
2022/09/10 00:03:25;;;;;;;0.10;0.10;;;16.30;99.90;;;;;;4960210;28;20023;-76
2022/09/10 00:05:52;;;;;;;0.10;0.10;;;16.30;99.90;;;;;;4961300;28;20030;-76
2022/09/10 00:08:18;;;;;;;0.10;0.10;;;16.40;99.90;;;;;;4964332;28;20666;-74
2022/09/10 00:10:50;;;;;;;0.10;0.10;;;16.30;99.90;;;;;;4963092;28;20038;-77
2022/09/10 00:13:21;;;;;;;0.10;0.10;;;16.20;99.90;;;;;;4961332;28;20066;-76
2022/09/10 00:15:51;;;;;;;0.10;0.10;;;16.10;99.90;;;;;;4958754;28;20453;-76
2022/09/10 00:18:21;;;;;;;0.10;0.10;;;16.20;99.90;;;;;;4962239;28;20042;-77
2022/09/10 00:20:52;;;;;;;0.40;0.40;;;16.20;99.90;;;;;;4959308;28;20777;-75
2022/09/10 00:23:24;;;;;;;0.10;0.10;;;16.10;99.90;;;;;;4962676;28;20110;-75
2022/09/10 00:25:52;;;;;;;0.20;0.20;;;16.10;99.90;;;;;;4961862;28;20444;-76
2022/09/10 00:28:19;;;;;;;0.50;0.50;;;16.10;99.90;;;;;;4957822;28;20054;-76
2022/09/10 00:30:49;;;;;;;0.10;0.10;;;16.00;99.90;;;;;;4961634;28;20253;-76
2022/09/10 00:33:17;;;;;;;0.22;0.22;;;16.10;99.90;;;;;;4970138;28;20491;-76
2022/09/10 00:35:43;;;;;;;0.10;0.10;;;16.00;99.90;;;;;;4961844;28;20039;-77
2022/09/10 00:38:13;;;;;;;0.10;0.10;;;16.00;99.90;;;;;;4965759;28;20038;-75
2022/09/10 00:40:39;;;;;;;0.10;0.10;;;15.90;99.90;;;;;;4959375;28;20031;-77
2022/09/10 00:43:14;;;;;;;0.17;0.17;;;16.00;99.90;;;;;;4956933;28;20473;-77
2022/09/10 00:45:42;;;;;;;0.10;0.10;;;15.90;99.90;;;;;;4956146;28;20093;-77
2022/09/10 00:48:23;;;;;;;0.30;0.30;;;16.00;99.90;;;;;;4956883;28;20433;-77
2022/09/10 00:50:53;;;;;;;0.10;0.10;;;15.90;99.90;;;;;;4960919;28;20042;-76
2022/09/10 00:53:23;;;;;;;0.15;0.15;;;15.80;99.90;;;;;;4960151;28;20026;-76
2022/09/10 00:55:54;;;;;;;0.30;0.30;;;15.90;99.90;;;;;;4957077;28;20036;-77
2022/09/10 00:58:24;;;;;;;0.57;0.50;;;15.90;99.90;;;;;;4959970;28;20102;-77
2022/09/10 01:00:58;;;;;;;0.10;0.10;;;15.90;99.90;;;;;;4960572;28;20034;-77
2022/09/10 01:03:28;;;;;;;0.13;0.13;;;15.90;99.90;;;;;;4954608;28;20030;-77
2022/09/10 01:05:57;;;;;;;0.10;0.10;;;15.90;99.90;;;;;;4968155;28;20105;-77
2022/09/10 01:08:26;;;;;;;0.10;0.10;;;15.90;99.90;;;;;;4958626;28;20077;-77
2022/09/10 01:11:25;;;;;;;0.20;0.20;;;15.90;99.90;;;;;;4960716;28;20119;-77
2022/09/10 01:14:18;;;;;;;0.20;0.20;;;15.80;99.90;;;;;;4959214;28;20360;-77
2022/09/10 01:17:04;;;;;;;0.10;0.10;;;15.80;99.90;;;;;;4962181;28;20028;-77
2022/09/10 01:19:50;;;;;;;0.10;0.10;;;15.90;99.90;;;;;;4959597;28;20183;-76
2022/09/10 01:22:18;;;;;;;1.35;1.23;;;15.90;99.90;;;;;;4960334;28;20023;-78
2022/09/10 01:25:16;;;;;;;0.10;0.10;;;15.90;99.90;;;;;;4961340;28;20023;-77
2022/09/10 01:27:47;;;;;;;0.10;0.10;;;16.00;99.90;;;;;;4958101;28;20412;-78
2022/09/10 01:30:28;;;;;;;0.40;0.40;;;15.90;99.90;;;;;;4969906;28;20024;-78
2022/09/10 01:33:19;;;;;;;0.10;0.10;;;15.90;99.90;;;;;;4959514;28;20035;-78
2022/09/10 01:35:51;;;;;;;0.20;0.20;;;15.80;99.90;;;;;;4962585;28;20026;-77
2022/09/10 01:38:31;;;;;;;0.10;0.10;;;15.90;99.90;;;;;;4962978;28;20027;-78
2022/09/10 01:40:57;;;;;;;0.10;0.10;;;15.80;99.90;;;;;;4957910;28;20019;-77
2022/09/10 01:43:28;;;;;;;0.10;0.10;;;15.90;99.90;;;;;;4960675;28;20042;-78
2022/09/10 01:45:56;;;;;;;1.65;1.52;;;15.90;99.90;;;;;;4964656;28;20093;-77
2022/09/10 01:48:44;;;;;;;0.13;0.13;;;15.90;99.90;;;;;;4961630;28;20023;-76
2022/09/10 01:51:52;;;;;;;0.20;0.20;;;15.90;99.90;;;;;;4965015;28;20024;-78
2022/09/10 01:54:29;;;;;;;0.10;0.10;;;15.90;99.90;;;;;;4967445;28;20046;-75
2022/09/10 01:57:07;;;;;;;0.10;0.10;;;15.90;99.90;;;;;;4963080;28;20326;-78
2022/09/10 01:59:52;;;;;;;0.10;0.10;;;15.80;99.90;;;;;;4964780;28;20027;-78
2022/09/10 02:02:22;;;;;;;0.10;0.10;;;15.90;99.90;;;;;;4962914;28;20042;-78
2022/09/10 02:04:50;;;;;;;0.25;0.25;;;16.00;99.90;;;;;;4951051;28;20035;-78
2022/09/10 02:07:21;;;;;;;0.10;0.10;;;16.00;99.90;;;;;;4959953;28;20022;-78
2022/09/10 02:09:49;;;;;;;0.20;0.20;;;15.90;99.90;;;;;;4963058;28;20054;-78
2022/09/10 02:12:20;;;;;;;0.10;0.10;;;16.00;99.90;;;;;;4962973;28;20054;-78
2022/09/10 02:14:54;;;;;;;0.10;0.10;;;16.00;99.90;;;;;;4965829;28;20019;-78
2022/09/10 02:17:23;;;;;;;0.30;0.30;;;16.10;99.90;;;;;;4961274;28;20024;-78
2022/09/10 02:19:52;;;;;;;0.10;0.10;;;15.80;99.90;;;;;;4964874;28;20448;-78
2022/09/10 02:22:22;;;;;;;0.50;0.50;;;15.80;99.90;;;;;;4961720;28;20448;-78
2022/09/10 02:24:49;;;;;;;0.30;0.30;;;16.00;99.90;;;;;;4966510;28;20038;-78
2022/09/10 02:27:15;;;;;;;0.25;0.25;;;15.90;99.90;;;;;;4966751;28;20105;-78
2022/09/10 02:29:45;;;;;;;0.20;0.20;;;15.90;99.90;;;;;;4966795;28;20054;-77
2022/09/10 02:32:10;;;;;;;0.10;0.10;;;16.00;99.90;;;;;;4962515;28;20489;-78
2022/09/10 02:34:36;;;;;;;0.10;0.10;;;16.00;99.90;;;;;;4962027;28;20030;-78
2022/09/10 02:37:02;;;;;;;0.10;0.10;;;16.00;99.90;;;;;;4965150;28;20035;-78
2022/09/10 02:39:29;;;;;;;0.10;0.10;;;16.00;99.90;;;;;;4962348;28;20022;-78
2022/09/10 02:41:55;;;;;;;0.77;0.77;;;15.90;99.90;;;;;;4968276;28;20108;-78
2022/09/10 02:44:23;;;;;;;0.10;0.10;;;16.00;99.90;;;;;;4967780;28;20019;-78
2022/09/10 02:46:49;;;;;;;0.10;0.10;;;16.00;99.90;;;;;;4961228;28;20042;-78
2022/09/10 02:49:15;;;;;;;0.20;0.20;;;16.10;99.90;;;;;;4959673;28;20031;-78
2022/09/10 02:51:41;;;;;;;0.77;0.77;;;16.20;99.90;;;;;;4964208;28;20105;-78
2022/09/10 02:54:07;;;;;;;0.20;0.20;;;16.10;99.90;;;;;;4959713;28;20019;-78
2022/09/10 02:56:33;;;;;;;0.10;0.10;;;16.10;99.90;;;;;;4964305;28;20444;-77
2022/09/10 02:59:01;;;;;;;0.10;0.10;;;16.10;99.90;;;;;;4965080;28;20035;-78
2022/09/10 03:01:29;;;;;;;2.05;1.85;;;16.10;99.90;;;;;;4963403;28;20023;-76
2022/09/10 03:03:57;;;;;;;0.30;0.30;;;16.20;99.90;;;;;;4963566;28;20023;-78
2022/09/10 03:06:27;;;;;;;0.13;0.13;;;16.20;99.90;;;;;;4965197;28;20027;-77
2022/09/10 03:08:57;;;;;;;0.20;0.20;;;16.30;99.90;;;;;;4962775;28;20035;-78
2022/09/10 03:11:24;;;;;;;0.20;0.20;;;16.30;99.90;;;;;;4964358;28;20460;-78
2022/09/10 03:13:50;;;;;;;0.10;0.10;;;16.30;99.90;;;;;;4960895;28;20050;-78
2022/09/10 03:16:19;;;;;;;0.10;0.10;;;16.30;99.90;;;;;;4959127;28;20031;-78
2022/09/10 03:18:45;;;;;;;0.20;0.20;;;16.30;99.90;;;;;;4961594;28;20483;-78
2022/09/10 03:21:17;;;;;;;0.20;0.20;;;16.40;99.90;;;;;;4965421;28;20106;-78
2022/09/10 03:23:46;;;;;;;0.20;0.20;;;16.40;99.90;;;;;;4963313;28;20110;-78
2022/09/10 03:26:13;;;;;;;0.10;0.10;;;16.50;99.90;;;;;;4960953;28;20640;-77
2022/09/10 03:28:40;;;;;;;0.13;0.13;;;16.50;99.90;;;;;;4963684;28;20023;-78
2022/09/10 03:31:07;;;;;;;0.10;0.10;;;16.40;99.90;;;;;;4961885;28;20051;-77
2022/09/10 03:33:33;;;;;;;0.10;0.10;;;16.40;99.90;;;;;;4961233;28;20030;-77
2022/09/10 03:35:59;;;;;;;0.20;0.20;;;16.40;99.90;;;;;;4959906;28;20142;-78
2022/09/10 03:38:25;;;;;;;0.13;0.13;;;16.50;99.90;;;;;;4962472;28;20030;-77
2022/09/10 03:40:54;;;;;;;0.45;0.45;;;16.40;99.90;;;;;;4962046;28;20475;-78
2022/09/10 03:43:21;;;;;;;0.13;0.13;;;16.40;99.90;;;;;;4960625;28;20035;-78
2022/09/10 03:45:50;;;;;;;0.20;0.20;;;16.30;99.90;;;;;;4961787;28;20027;-77
2022/09/10 03:48:18;;;;;;;0.10;0.10;;;16.40;99.90;;;;;;4961378;28;20031;-78
2022/09/10 03:50:44;;;;;;;0.10;0.10;;;16.40;99.90;;;;;;4974526;28;20570;-77
2022/09/10 03:53:13;;;;;;;0.10;0.10;;;16.30;99.90;;;;;;4958230;28;20031;-77
2022/09/10 03:55:49;;;;;;;0.20;0.20;;;16.40;99.90;;;;;;4961253;28;20503;-77
2022/09/10 03:58:16;;;;;;;0.20;0.20;;;16.30;99.90;;;;;;4958845;28;20023;-77
2022/09/10 04:00:42;;;;;;;0.20;0.20;;;16.40;99.90;;;;;;4960711;28;20118;-77
2022/09/10 04:03:09;;;;;;;0.35;0.35;;;16.40;99.90;;;;;;4958620;28;20464;-77
2022/09/10 04:05:38;;;;;;;0.10;0.10;;;16.40;99.90;;;;;;4962364;28;20027;-76
2022/09/10 04:08:06;;;;;;;0.20;0.20;;;16.50;99.90;;;;;;4960365;28;20043;-77
2022/09/10 04:10:34;;;;;;;0.20;0.20;;;16.50;99.90;;;;;;4966382;28;20468;-77
2022/09/10 04:12:59;;;;;;;0.20;0.20;;;16.50;99.90;;;;;;4963874;28;20077;-79
2022/09/10 04:15:27;;;;;;;0.20;0.20;;;16.50;99.90;;;;;;4960629;28;20030;-77
2022/09/10 04:17:53;;;;;;;0.10;0.10;;;16.50;99.90;;;;;;4963247;28;20039;-76
2022/09/10 04:20:21;;;;;;;0.10;0.10;;;16.50;99.90;;;;;;4965739;28;20023;-78
2022/09/10 04:22:50;;;;;;;0.10;0.10;;;16.50;99.90;;;;;;4967513;28;20519;-77
2022/09/10 04:25:19;;;;;;;0.17;0.17;;;16.50;99.90;;;;;;4962006;28;20042;-79
2022/09/10 04:27:48;;;;;;;0.20;0.20;;;16.50;99.90;;;;;;4966024;28;20032;-79
2022/09/10 04:30:15;;;;;;;0.20;0.20;;;16.50;99.90;;;;;;4964952;28;20164;-75
2022/09/10 04:32:41;;;;;;;0.20;0.20;;;16.50;99.90;;;;;;4961316;28;20028;-72
2022/09/10 04:35:08;;;;;;;0.20;0.20;;;16.50;99.90;;;;;;4957904;28;20041;-74
2022/09/10 04:37:36;;;;;;;0.20;0.20;;;16.50;99.90;;;;;;4958118;28;20394;-73
2022/09/10 04:40:02;;;;;;;0.32;0.32;;;16.50;99.90;;;;;;4962077;28;20099;-73
2022/09/10 04:42:32;;;;;;;0.20;0.20;;;16.50;99.90;;;;;;4960302;28;20388;-74
2022/09/10 04:44:58;;;;;;;0.35;0.35;;;16.60;99.90;;;;;;4961886;28;20057;-73
2022/09/10 04:47:24;;;;;;;0.20;0.20;;;16.60;99.90;;;;;;4963917;28;20027;-74
2022/09/10 04:49:52;;;;;;;0.20;0.20;;;16.60;99.90;;;;;;4966646;28;20110;-74
2022/09/10 04:52:21;;;;;;;0.20;0.20;;;16.60;99.90;;;;;;4960064;28;20023;-73
2022/09/10 04:54:47;;;;;;;0.20;0.20;;;16.60;99.90;;;;;;4960840;28;20429;-73
2022/09/10 04:57:13;;;;;;;0.32;0.32;;;16.60;99.90;;;;;;4956694;28;20166;-75
2022/09/10 04:59:39;;;;;;;0.20;0.20;;;16.60;99.90;;;;;;4962170;28;20034;-71
2022/09/10 05:02:05;;;;;;;0.20;0.20;;;16.60;99.90;;;;;;4963200;28;20027;-73
2022/09/10 05:04:32;;;;;;;1.10;0.60;;;16.50;99.90;;;;;;4965063;28;20459;-72
2022/09/10 05:06:58;;;;;;;1.20;1.20;;;16.60;99.90;;;;;;4961083;28;20082;-73
2022/09/10 05:09:30;;;;;;;0.20;0.20;;;16.50;99.90;;;;;;4966729;28;20023;-73
2022/09/10 05:11:59;;;;;;;0.20;0.20;;;16.60;99.90;;;;;;4961444;28;20038;-72
2022/09/10 05:14:25;;;;;;;0.30;0.30;;;16.60;99.90;;;;;;4957760;28;20034;-73
2022/09/10 05:16:51;;;;;;;0.20;0.20;;;16.60;99.90;;;;;;4958443;28;20035;-72
2022/09/10 05:19:17;;;;;;;0.30;0.30;;;16.50;99.90;;;;;;4962832;28;20405;-74
2022/09/10 05:21:49;;;;;;;0.20;0.20;;;16.50;99.90;;;;;;4959707;28;20050;-72
2022/09/10 05:24:18;;;;;;;0.20;0.20;;;16.50;99.90;;;;;;4959032;28;20034;-72
2022/09/10 05:26:46;;;;;;;0.22;0.22;;;16.50;99.90;;;;;;4959319;28;20098;-73
2022/09/10 05:29:15;;;;;;;0.52;0.52;;;16.50;99.90;;;;;;4957144;28;20027;-73
2022/09/10 05:31:43;;;;;;;0.25;0.25;;;16.50;99.90;;;;;;4961305;28;20039;-71
2022/09/10 05:34:09;;;;;;;0.20;0.20;;;16.50;99.90;;;;;;4961988;28;20114;-73
2022/09/10 05:36:35;;;;;;;0.20;0.20;;;16.50;99.90;;;;;;4958030;28;20153;-72
2022/09/10 05:39:02;;;;;;;0.20;0.20;;;16.50;99.90;;;;;;4962981;28;20367;-74
2022/09/10 05:41:29;;;;;;;0.20;0.20;;;16.50;99.90;;;;;;4958888;28;20469;-73
2022/09/10 05:43:56;;;;;;;0.20;0.20;;;16.50;99.90;;;;;;4960206;28;20066;-73
2022/09/10 05:46:23;;;;;;;0.30;0.30;;;16.50;99.90;;;;;;4958476;28;20034;-72
2022/09/10 05:48:49;;;;;;;0.20;0.20;;;16.60;99.90;;;;;;4960318;28;20079;-72
2022/09/10 05:51:15;;;;;;;0.20;0.20;;;16.50;99.90;;;;;;4964713;28;20114;-73
2022/09/10 05:53:40;;;;;;;0.22;0.22;;;16.60;99.90;;;;;;4957769;28;20170;-73
2022/09/10 05:56:06;;;;;;;0.60;0.60;;;16.50;99.90;;;;;;4958110;28;20062;-74
2022/09/10 05:58:33;;;;;;;0.20;0.20;;;16.60;99.90;;;;;;4961628;28;20022;-74
2022/09/10 06:01:02;;;;;;;0.20;0.20;;;16.60;99.90;;;;;;4959378;28;20113;-74
2022/09/10 06:03:27;;;;;;;0.38;0.38;;;16.60;99.90;;;;;;4959009;28;20140;-74
2022/09/10 06:05:55;;;;;;;0.20;0.20;;;16.60;99.90;;;;;;4958949;28;20802;-73
2022/09/10 06:08:22;;;;;;;0.20;0.20;;;16.60;99.90;;;;;;4959833;28;20763;-73
2022/09/10 06:10:56;;;;;;;0.20;0.20;;;16.60;99.90;;;;;;4958125;28;20443;-75
2022/09/10 06:13:23;;;;;;;0.40;0.40;;;16.70;99.90;;;;;;4963301;28;20528;-72
2022/09/10 06:15:49;;;;;;;0.22;0.22;;;16.70;99.90;;;;;;4959714;28;20039;-71
2022/09/10 06:18:19;;;;;;;0.20;0.20;;;16.70;99.90;;;;;;4959856;28;20118;-72
2022/09/10 06:20:48;;;;;;;0.20;0.20;;;16.70;99.90;;;;;;4957500;28;20031;-72
2022/09/10 06:23:17;;;;;;;0.20;0.20;;;16.70;99.90;;;;;;4959923;28;20369;-73
2022/09/10 06:25:43;;;;;;;0.20;0.20;;;16.70;99.90;;;;;;4960373;28;20031;-73
2022/09/10 06:28:10;;;;;;;0.25;0.25;;;16.80;99.90;;;;;;4960576;28;20436;-73
2022/09/10 06:30:36;;;;;;;0.20;0.20;;;16.80;99.90;;;;;;4967801;28;20034;-75
2022/09/10 06:33:02;;;;;;;0.20;0.20;;;16.80;99.90;;;;;;4966710;28;20106;-76
2022/09/10 06:35:28;;;;;;;0.60;0.60;;;16.80;99.90;;;;;;4963695;28;20027;-76
2022/09/10 06:37:57;;;;;;;0.30;0.30;;;16.90;99.90;;;;;;4962343;28;20034;-74
2022/09/10 06:40:26;;;;;;;0.32;0.32;;;16.90;99.90;;;;;;4958239;28;20163;-74
2022/09/10 06:42:54;;;;;;;0.20;0.20;;;17.00;99.90;;;;;;4964534;28;20109;-74
2022/09/10 06:45:20;;;;;;;0.50;0.50;;;16.90;99.90;;;;;;4966299;28;20667;-72
2022/09/10 06:47:48;;;;;;;0.20;0.20;;;17.00;99.90;;;;;;4972595;28;20042;-74
2022/09/10 06:50:13;;;;;;;0.22;0.22;;;17.00;99.90;;;;;;4965736;28;20138;-73
2022/09/10 06:52:39;;;;;;;0.20;0.20;;;17.00;99.90;;;;;;4972340;28;20454;-73
2022/09/10 06:55:05;;;;;;;0.20;0.20;;;16.90;99.90;;;;;;4965058;28;20089;-74
2022/09/10 06:57:31;;;;;;;0.30;0.30;;;16.90;99.90;;;;;;4966289;28;20067;-74
2022/09/10 06:59:57;;;;;;;23.77;4.97;;;17.00;99.90;;;;;;4965472;28;20054;-74
2022/09/10 07:02:24;;;;;;;0.20;0.20;;;17.00;99.90;;;;;;4961938;28;20023;-73
2022/09/10 07:04:49;;;;;;;0.20;0.20;;;17.00;99.90;;;;;;4963182;28;20023;-71
2022/09/10 07:07:15;;;;;;;0.52;0.52;;;16.80;99.90;;;;;;4962916;28;20045;-73
2022/09/10 07:09:41;;;;;;;0.20;0.20;;;16.80;99.90;;;;;;4957744;28;20023;-71
2022/09/10 07:12:08;;;;;;;0.30;0.30;;;16.80;99.90;;;;;;4961788;28;20118;-75
2022/09/10 07:14:33;;;;;;;0.77;0.77;;;16.80;99.90;;;;;;4961329;28;20034;-72
2022/09/10 07:17:01;;;;;;;0.30;0.30;;;16.70;99.90;;;;;;4958016;28;20027;-73
2022/09/10 07:19:28;;;;;;;0.28;0.28;;;16.80;99.90;;;;;;4962490;28;20097;-75
2022/09/10 07:21:54;;;;;;;0.20;0.20;;;16.80;99.90;;;;;;4961673;28;20019;-75
2022/09/10 07:24:22;;;;;;;0.20;0.20;;;16.80;99.90;;;;;;4966275;28;20033;-74
2022/09/10 07:26:50;;;;;;;0.20;0.20;;;16.90;99.90;;;;;;4957650;28;20027;-74
2022/09/10 07:29:19;;;;;;;0.40;0.40;;;16.80;99.90;;;;;;4961615;28;20076;-74
2022/09/10 07:31:46;;;;;;;0.20;0.20;;;16.90;99.90;;;;;;4961690;28;20039;-73
2022/09/10 07:34:12;;;;;;;1.67;1.58;;;17.10;99.90;;;;;;4960621;28;20341;-75
2022/09/10 07:36:41;;;;;;;0.30;0.30;;;17.20;99.90;;;;;;4960410;28;20134;-74
2022/09/10 07:39:07;;;;;;;0.50;0.50;;;17.30;99.90;;;;;;4957857;28;20031;-75
2022/09/10 07:41:36;;;;;;;0.30;0.30;;;17.30;99.90;;;;;;4960537;28;20061;-74
2022/09/10 07:44:02;;;;;;;0.30;0.30;;;17.30;99.90;;;;;;4959955;28;20058;-74
2022/09/10 07:46:27;;;;;;;0.30;0.30;;;17.40;99.90;;;;;;4959525;28;20069;-74
2022/09/10 07:48:57;;;;;;;0.30;0.30;;;17.40;99.90;;;;;;4962127;28;20649;-74
2022/09/10 07:51:25;;;;;;;0.38;0.38;;;17.30;99.90;;;;;;4961493;28;20748;-73
2022/09/10 07:53:52;;;;;;;0.32;0.32;;;17.30;99.90;;;;;;4960796;28;20039;-75
2022/09/10 07:56:18;;;;;;;0.47;0.47;;;17.40;99.90;;;;;;4959526;28;20041;-75
2022/09/10 07:58:44;;;;;;;0.40;0.40;;;17.40;99.90;;;;;;4961158;28;20117;-74
2022/09/10 08:01:11;;;;;;;0.30;0.30;;;17.40;99.90;;;;;;4958510;28;20114;-75
2022/09/10 08:03:38;;;;;;;0.40;0.40;;;17.30;99.90;;;;;;4960137;28;20398;-74
2022/09/10 08:06:08;;;;;;;0.30;0.30;;;17.30;99.90;;;;;;4962163;28;20091;-74
2022/09/10 08:08:37;;;;;;;0.40;0.40;;;17.10;99.90;;;;;;4961319;28;20334;-72
2022/09/10 08:11:18;;;;;;;0.30;0.30;;;17.10;99.90;;;;;;4963300;28;20030;-77
2022/09/10 08:13:47;;;;;;;0.30;0.30;;;17.00;99.90;;;;;;4959846;28;20037;-76
2022/09/10 08:16:18;;;;;;;0.30;0.30;;;16.90;99.90;;;;;;4964693;28;20101;-73
2022/09/10 08:18:46;;;;;;;0.30;0.30;;;16.80;99.90;;;;;;4963196;28;20125;-73
2022/09/10 08:21:16;;;;;;;0.43;0.43;;;16.70;99.90;;;;;;4962862;28;20031;-74
2022/09/10 08:23:46;;;;;;;0.30;0.30;;;16.70;99.90;;;;;;4960388;28;20023;-75
2022/09/10 08:26:12;;;;;;;0.40;0.40;;;16.70;99.90;;;;;;4960862;28;20042;-75
2022/09/10 08:28:38;;;;;;;0.30;0.30;;;16.70;99.90;;;;;;4967619;28;20035;-75
2022/09/10 08:31:12;;;;;;;0.30;0.30;;;16.70;99.90;;;;;;4958503;28;20026;-75
2022/09/10 08:33:46;;;;;;;0.30;0.30;;;16.70;99.90;;;;;;4957493;28;20062;-74
2022/09/10 08:36:13;;;;;;;0.20;0.20;;;16.70;99.90;;;;;;4966222;28;20345;-75
2022/09/10 08:38:40;;;;;;;0.30;0.30;;;16.80;99.90;;;;;;4959819;28;20035;-75
2022/09/10 08:41:24;;;;;;;0.30;0.30;;;16.80;99.90;;;;;;4961845;28;20027;-74
2022/09/10 08:44:07;;;;;;;0.30;0.30;;;16.80;99.90;;;;;;4967636;28;20026;-75
2022/09/10 08:46:39;;;;;;;0.30;0.30;;;16.70;99.90;;;;;;4966687;28;20031;-76
2022/09/10 08:49:31;;;;;;;0.30;0.30;;;16.70;99.90;;;;;;4960736;28;20031;-78
2022/09/10 08:52:09;;;;;;;0.40;0.40;;;16.80;99.90;;;;;;4961265;28;20034;-74
2022/09/10 08:54:46;;;;;;;0.50;0.50;;;16.80;99.90;;;;;;4962187;28;20094;-74
2022/09/10 08:57:26;;;;;;;0.40;0.40;;;16.80;99.90;;;;;;4960822;28;20038;-79
2022/09/10 08:59:59;;;;;;;0.70;0.70;;;16.70;99.90;;;;;;4962541;28;20023;-74
2022/09/10 09:02:47;;;;;;;0.50;0.50;;;16.70;99.90;;;;;;4964065;28;20028;-75
2022/09/10 09:05:27;;;;;;;0.40;0.40;;;16.80;99.90;;;;;;4962465;28;20037;-76
2022/09/10 09:07:53;;;;;;;0.30;0.30;;;16.70;99.90;;;;;;4960826;28;20488;-76
2022/09/10 09:10:37;;;;;;;0.30;0.30;;;16.70;99.90;;;;;;4965772;28;20027;-76
2022/09/10 09:13:11;;;;;;;0.30;0.30;;;16.80;99.90;;;;;;4962434;28;20464;-76
2022/09/10 09:15:50;;;;;;;0.40;0.40;;;16.70;99.90;;;;;;4962920;28;20058;-77
2022/09/10 09:18:34;;;;;;;0.40;0.40;;;16.80;99.90;;;;;;4964489;28;20046;-71
2022/09/10 09:21:12;;;;;;;0.20;0.20;;;16.80;99.90;;;;;;4968697;28;20027;-76
2022/09/10 09:23:40;;;;;;;0.30;0.30;;;16.70;99.90;;;;;;4964559;28;20022;-77
2022/09/10 09:26:14;;;;;;;0.30;0.30;;;16.80;99.90;;;;;;4966102;28;20034;-76
2022/09/10 09:28:46;;;;;;;0.43;0.43;;;16.80;99.90;;;;;;4960999;28;20030;-72
2022/09/10 09:31:36;;;;;;;0.20;0.20;;;16.80;99.90;;;;;;4972268;28;20062;-74
2022/09/10 09:34:28;;;;;;;0.47;0.47;;;16.80;99.90;;;;;;4965507;28;20030;-75
2022/09/10 09:36:59;;;;;;;0.30;0.30;;;17.00;99.90;;;;;;4963105;28;20035;-75
2022/09/10 09:39:44;;;;;;;0.38;0.38;;;17.10;99.90;;;;;;4949355;28;20027;-75
2022/09/10 09:42:36;;;;;;;0.60;0.60;;;17.10;99.90;;;;;;4960330;28;20020;-74
2022/09/10 09:45:42;;;;;;;0.47;0.47;;;17.10;99.90;;;;;;4969316;28;20027;-75
2022/09/10 09:48:12;;;;;;;0.30;0.30;;;17.10;99.90;;;;;;4982287;28;20061;-74
2022/09/10 09:50:40;;;;;;;0.70;0.70;;;17.10;99.90;;;;;;4979932;28;20562;-74
2022/09/10 09:53:12;;;;;;;0.38;0.38;;;17.20;99.90;;;;;;4979235;28;20042;-72
2022/09/10 09:55:44;;;;;;;1.40;0.85;;;17.20;99.90;;;;;;4977153;28;20030;-74
2022/09/10 09:58:31;;;;;;;0.40;0.40;;;17.20;99.90;;;;;;4979257;28;20031;-72
2022/09/10 10:01:02;;;;;;;0.40;0.40;;;17.30;99.90;;;;;;4978021;28;20058;-76
2022/09/10 10:03:31;;;;;;;0.30;0.30;;;17.40;99.90;;;;;;4976543;28;20038;-70
2022/09/10 10:06:04;;;;;;;0.30;0.30;;;17.30;99.90;;;;;;4977281;28;20127;-74
2022/09/10 10:08:38;;;;;;;0.30;0.30;;;17.30;99.90;;;;;;4980988;28;20129;-70
2022/09/10 10:11:05;;;;;;;0.70;0.70;;;17.50;99.90;;;;;;4978733;28;20046;-72
2022/09/10 10:13:44;;;;;;;0.60;0.60;;;17.60;99.90;;;;;;4977992;28;20118;-75
2022/09/10 10:16:25;;;;;;;0.55;0.55;;;17.60;99.90;;;;;;4982081;28;20078;-74
2022/09/10 10:18:54;;;;;;;0.30;0.30;;;17.60;99.90;;;;;;4964385;28;20054;-73
2022/09/10 10:21:28;;;;;;;0.50;0.50;;;17.60;99.90;;;;;;4969229;28;20038;-74
2022/09/10 10:23:54;;;;;;;0.47;0.47;;;17.50;99.90;;;;;;4965379;28;20223;-76
2022/09/10 10:26:19;;;;;;;0.30;0.30;;;17.60;99.90;;;;;;4966993;28;20150;-73
2022/09/10 10:28:47;;;;;;;0.20;0.20;;;17.60;99.90;;;;;;4962969;28;20062;-74
2022/09/10 10:31:14;;;;;;;1.15;1.15;;;17.60;99.90;;;;;;4968567;28;20058;-73
2022/09/10 10:34:19;;;;;;;0.35;0.35;;;17.60;99.90;;;;;;4977037;28;20041;-73
2022/09/10 10:37:03;;;;;;;0.30;0.30;;;17.80;99.90;;;;;;4966606;28;20047;-76
2022/09/10 10:39:54;;;;;;;0.38;0.38;;;17.80;99.90;;;;;;4962666;28;20106;-74
2022/09/10 10:42:44;;;;;;;0.30;0.30;;;17.90;99.90;;;;;;4965389;28;20095;-75
2022/09/10 10:45:26;;;;;;;0.60;0.60;;;18.10;99.90;;;;;;4963303;28;20058;-75
2022/09/10 10:48:30;;;;;;;0.80;0.80;;;18.20;99.90;;;;;;4968659;28;20035;-76
2022/09/10 10:51:11;;;;;;;0.43;0.43;;;18.30;99.90;;;;;;4965037;28;20347;-72
2022/09/10 10:54:08;;;;;;;0.30;0.30;;;18.50;99.90;;;;;;4980408;28;20047;-75
2022/09/10 10:57:02;;;;;;;0.40;0.40;;;18.90;99.90;;;;;;4963110;28;20043;-77
2022/09/10 10:59:52;;;;;;;0.40;0.40;;;19.10;99.90;;;;;;4963910;28;20043;-75
2022/09/10 11:02:39;;;;;;;0.50;0.50;;;19.30;99.90;;;;;;4963865;28;20038;-77
2022/09/10 11:05:37;;;;;;;0.40;0.40;;;19.20;99.90;;;;;;4952184;28;20035;-74
2022/09/10 11:08:19;;;;;;;1.38;0.98;;;19.50;99.90;;;;;;4985412;28;20463;-73
2022/09/10 11:10:50;;;;;;;0.40;0.40;;;19.80;99.90;;;;;;4980625;28;20057;-73
2022/09/10 11:13:21;;;;;;;0.50;0.50;;;19.90;99.90;;;;;;4981061;28;20360;-75
2022/09/10 11:16:01;;;;;;;0.50;0.50;;;19.90;99.90;;;;;;4983781;28;20045;-75
2022/09/10 11:18:33;;;;;;;1.35;1.25;;;19.80;99.90;;;;;;4982745;28;20085;-76
2022/09/10 11:21:13;;;;;;;0.40;0.40;;;19.70;99.90;;;;;;4983334;28;20027;-75
2022/09/10 11:23:47;;;;;;;0.73;0.73;;;19.60;99.90;;;;;;4988907;28;20045;-75
2022/09/10 11:26:44;;;;;;;0.40;0.40;;;19.60;99.90;;;;;;4997676;28;20030;-72
2022/09/10 11:29:21;;;;;;;0.40;0.40;;;19.60;99.90;;;;;;4987202;28;20211;-74
2022/09/10 11:31:56;;;;;;;0.75;0.75;;;19.60;99.90;;;;;;4987719;28;20208;-75
2022/09/10 11:34:34;;;;;;;0.30;0.30;;;19.50;99.90;;;;;;4983457;28;20031;-76
2022/09/10 11:37:24;;;;;;;0.25;0.25;;;19.40;99.90;;;;;;4982139;28;20113;-73
2022/09/10 11:39:54;;;;;;;0.50;0.50;;;19.10;99.90;;;;;;4988551;28;20023;-76
2022/09/10 11:42:29;;;;;;;0.40;0.40;;;18.90;99.90;;;;;;4982205;28;20023;-75
2022/09/10 11:45:18;;;;;;;0.40;0.40;;;18.70;99.90;;;;;;4983119;28;20644;-73
2022/09/10 11:47:56;;;;;;;0.88;0.88;;;18.50;99.90;;;;;;4983141;28;20663;-72
2022/09/10 11:50:52;;;;;;;0.40;0.40;;;18.30;99.90;;;;;;4981032;28;20153;-73
2022/09/10 11:53:20;;;;;;;0.30;0.30;;;18.30;99.90;;;;;;4981633;28;20106;-73
2022/09/10 11:56:02;;;;;;;0.77;0.77;;;18.20;99.90;;;;;;4981531;28;20038;-75
2022/09/10 11:58:33;;;;;;;2.60;1.38;;;18.20;99.90;;;;;;4982014;28;20408;-75
2022/09/10 12:01:17;;;;;;;2.60;2.40;;;18.20;99.90;;;;;;4980046;28;20122;-72
2022/09/10 12:03:52;;;;;;;0.30;0.30;;;18.20;99.90;;;;;;4980322;28;20045;-75
2022/09/10 12:06:33;;;;;;;0.35;0.35;;;18.20;99.90;;;;;;4983647;28;20464;-73
2022/09/10 12:09:39;;;;;;;0.20;0.20;;;18.40;99.90;;;;;;4984711;28;20421;-76
2022/09/10 12:12:27;;;;;;;0.30;0.30;;;18.40;99.90;;;;;;4963357;28;20093;-75
2022/09/10 12:14:55;;;;;;;0.40;0.40;;;18.40;99.90;;;;;;4983689;28;20043;-75
2022/09/10 12:17:40;;;;;;;0.50;0.50;;;18.40;99.90;;;;;;4981664;28;20105;-75
2022/09/10 12:20:14;;;;;;;0.30;0.30;;;18.40;99.90;;;;;;4981905;28;20067;-74
2022/09/10 12:22:43;;;;;;;0.30;0.30;;;18.30;99.90;;;;;;4979573;28;20063;-75
2022/09/10 12:25:15;;;;;;;10.95;1.48;;;18.10;99.90;;;;;;4980346;28;20116;-75
2022/09/10 12:27:44;;;;;;;0.30;0.30;;;18.10;99.90;;;;;;4981773;28;20281;-76
2022/09/10 12:30:38;;;;;;;0.30;0.30;;;18.10;99.90;;;;;;4980946;28;20078;-74
2022/09/10 12:33:33;;;;;;;0.73;0.73;;;18.00;99.90;;;;;;4973361;28;20124;-75
2022/09/10 12:35:59;;;;;;;0.30;0.30;;;18.00;99.90;;;;;;4978482;28;20026;-75
2022/09/10 12:38:57;;;;;;;0.38;0.38;;;18.00;99.90;;;;;;4993397;28;20144;-74
2022/09/10 12:41:22;;;;;;;0.30;0.30;;;18.00;99.90;;;;;;4983471;28;20034;-75
2022/09/10 12:43:48;;;;;;;0.30;0.30;;;17.90;99.90;;;;;;4982810;28;20030;-74
2022/09/10 12:46:16;;;;;;;0.30;0.30;;;17.90;99.90;;;;;;4984338;28;20022;-75
2022/09/10 12:48:43;;;;;;;0.40;0.40;;;17.80;99.90;;;;;;4979825;28;20022;-75
2022/09/10 12:51:15;;;;;;;0.30;0.30;;;17.80;99.90;;;;;;4982502;28;20039;-75
2022/09/10 12:54:05;;;;;;;0.47;0.47;;;17.80;99.90;;;;;;4981418;28;20049;-76
2022/09/10 12:57:11;;;;;;;0.30;0.30;;;17.90;99.90;;;;;;4980803;28;20031;-75
2022/09/10 12:59:49;;;;;;;0.40;0.40;;;18.10;99.90;;;;;;4982421;28;20033;-75
2022/09/10 13:02:32;;;;;;;0.20;0.20;;;18.20;99.90;;;;;;4981364;28;20803;-75
2022/09/10 13:05:05;;;;;;;0.30;0.30;;;18.20;99.90;;;;;;4979084;28;20423;-75
2022/09/10 13:07:35;;;;;;;;;;;18.30;99.90;;;;;;4982173;28;20023;-75
2022/09/10 13:10:15;;;;;;;0.43;0.43;;;18.50;99.90;;;;;;4997396;28;19963;-76
2022/09/10 13:12:43;;;;;;;0.22;0.22;;;18.60;99.90;;;;;;4980512;28;20096;-74
2022/09/10 13:15:28;;;;;;;0.20;0.20;;;18.70;99.90;;;;;;4980294;28;20158;-75